Time;durP1;ratioP1;P1;durP2;ratioP2;P2;SDS_P1;SDS_P2;PMS_P1;PMS_P2;Temp;Humidity;BMP_temperature;BMP_pressure;BME280_temperature;BME280_humidity;BME280_pressure;Samples;Min_cycle;Max_cycle;Signal;HPM_P1;HPM_P2
2023/05/01 00:02:03;;;;;;;32.13;23.53;;;;;;;40.54;37.83;101005.56;5050065;28;21000;-86
2023/05/01 00:04:32;;;;;;;34.07;25.20;;;;;;;40.34;37.49;100981.72;5034214;28;20431;-80
2023/05/01 00:07:00;;;;;;;38.77;26.73;;;;;;;40.37;38.21;100988.41;5035746;28;20435;-84
2023/05/01 00:09:31;;;;;;;40.23;26.23;;;;;;;40.47;38.18;100997.09;5034284;28;20419;-87
2023/05/01 00:11:56;;;;;;;37.00;25.63;;;;;;;40.44;37.45;100975.13;5034259;28;20462;-88
2023/05/01 00:14:22;;;;;;;44.17;27.33;;;;;;;40.45;37.95;100982.16;5034061;28;20482;-87
2023/05/01 00:16:48;;;;;;;36.43;25.70;;;;;;;40.51;38.00;100978.19;5034083;28;20569;-88
2023/05/01 00:19:17;;;;;;;43.73;25.27;;;;;;;40.56;37.76;100975.31;5034222;28;20420;-87
2023/05/01 00:21:45;;;;;;;37.03;25.70;;;;;;;40.54;37.84;100967.50;5035566;28;20931;-86
2023/05/01 00:24:11;;;;;;;37.07;24.03;;;;;;;40.46;37.79;100953.88;5033911;28;20423;-87
2023/05/01 00:26:37;;;;;;;35.20;26.10;;;;;;;40.52;37.96;100945.28;5034207;28;20946;-87
2023/05/01 00:29:06;;;;;;;32.90;24.73;;;;;;;40.50;38.39;100961.09;5033582;28;20181;-87
2023/05/01 00:31:44;;;;;;;30.80;23.63;;;;;;;40.41;38.29;100962.22;5034197;28;20197;-88
2023/05/01 00:34:14;;;;;;;40.57;27.07;;;;;;;40.42;38.09;100950.22;5034062;28;20419;-84
2023/05/01 00:36:45;;;;;;;36.93;25.77;;;;;;;40.41;38.72;100951.34;5034653;28;20423;-85
2023/05/01 00:39:12;;;;;;;37.20;23.27;;;;;;;40.34;38.74;100929.28;5033502;28;20482;-85
2023/05/01 00:41:41;;;;;;;39.43;26.27;;;;;;;40.47;38.21;100941.88;5035075;28;20419;-86
2023/05/01 00:44:10;;;;;;;43.80;27.13;;;;;;;40.47;38.03;100931.84;5033782;28;20574;-86
2023/05/01 00:46:36;;;;;;;43.00;26.53;;;;;;;40.35;38.52;100904.50;5016391;28;20439;-86
2023/05/01 00:49:05;;;;;;;32.53;24.80;;;;;;;40.45;38.53;100930.53;5034202;28;20420;-85
2023/05/01 00:51:36;;;;;;;36.80;27.17;;;;;;;40.48;38.74;100927.19;5033573;28;20506;-85
2023/05/01 00:54:03;;;;;;;37.10;25.30;;;;;;;40.42;38.40;100914.88;5017290;28;20566;-86
2023/05/01 00:56:35;;;;;;;43.33;26.23;;;;;;;40.49;38.76;100924.16;5017715;28;20825;-86
2023/05/01 00:59:09;;;;;;;39.83;27.10;;;;;;;40.51;38.39;100918.38;5032040;28;20430;-85
2023/05/01 01:01:38;;;;;;;34.47;24.47;;;;;;;40.51;38.64;100912.94;5034534;28;20446;-85
2023/05/01 01:04:09;;;;;;;38.40;23.83;;;;;;;40.51;38.40;100908.31;5034291;28;20920;-85
2023/05/01 01:07:08;;;;;;;31.23;24.50;;;;;;;40.45;38.61;100901.41;5033674;28;20424;-86
2023/05/01 01:09:49;;;;;;;41.27;23.07;;;;;;;40.42;38.88;100899.34;5027199;28;20420;-86
2023/05/01 01:12:55;;;;;;;29.63;24.47;;;;;;;40.40;38.80;100889.94;5034466;28;20495;-85
2023/05/01 01:16:23;;;;;;;32.90;24.00;;;;;;;40.38;38.71;100879.38;5031555;28;20498;-85
2023/05/01 01:19:18;;;;;;;36.90;24.80;;;;;;;40.25;39.01;100873.00;4942249;28;20466;-86
2023/05/01 01:21:50;;;;;;;32.23;25.70;;;;;;;40.31;38.71;100870.09;4957745;28;20430;-84
2023/05/01 01:25:25;;;;;;;40.57;23.40;;;;;;;40.35;38.53;100874.59;5034401;28;20415;-85
2023/05/01 01:28:24;;;;;;;35.30;22.47;;;;;;;40.22;38.44;100834.81;4968187;28;20418;-86
2023/05/01 01:31:12;;;;;;;41.33;25.37;;;;;;;40.38;38.46;100865.78;4976753;28;20473;-85
2023/05/01 01:34:06;;;;;;;40.70;23.20;;;;;;;40.40;38.82;100849.97;4976828;28;20513;-84
2023/05/01 01:36:49;;;;;;;39.47;26.67;;;;;;;40.35;39.02;100849.31;4993850;28;20402;-85
2023/05/01 01:39:46;;;;;;;34.90;25.73;;;;;;;40.39;39.07;100847.53;4974668;28;20517;-85
2023/05/01 01:42:20;;;;;;;33.70;24.87;;;;;;;40.24;39.30;100838.78;4969795;28;20532;-85
2023/05/01 01:45:15;;;;;;;36.20;24.93;;;;;;;40.31;38.67;100845.66;4992752;28;20904;-85
2023/05/01 01:47:46;;;;;;;39.73;24.17;;;;;;;40.32;38.71;100839.09;4960479;28;20813;-85
2023/05/01 01:50:18;;;;;;;36.43;22.93;;;;;;;40.34;38.77;100845.03;4975663;28;20528;-84
2023/05/01 01:52:49;;;;;;;34.80;25.30;;;;;;;40.33;39.15;100843.41;4976327;28;20475;-88
2023/05/01 01:55:20;;;;;;;32.70;21.47;;;;;;;40.15;38.81;100829.88;4959648;28;20480;-87
2023/05/01 01:57:49;;;;;;;36.60;23.87;;;;;;;40.29;38.66;100835.09;4978405;28;20451;-87
2023/05/01 02:00:16;;;;;;;41.53;25.37;;;;;;;40.24;38.96;100829.84;5032020;28;20998;-87
2023/05/01 02:02:44;;;;;;;30.17;22.40;;;;;;;40.25;38.56;100829.50;5031243;28;20416;-88
2023/05/01 02:05:15;;;;;;;34.53;22.00;;;;;;;40.26;38.90;100822.16;5032624;28;20427;-88
2023/05/01 02:07:45;;;;;;;30.40;23.57;;;;;;;40.21;38.97;100825.88;5032581;28;20514;-88
2023/05/01 02:10:12;;;;;;;31.33;21.83;;;;;;;40.08;39.22;100815.94;5032376;28;20419;-87
2023/05/01 02:12:41;;;;;;;32.80;21.40;;;;;;;40.20;38.96;100824.25;5032165;28;20474;-87
2023/05/01 02:15:09;;;;;;;27.90;21.40;;;;;;;40.22;38.75;100827.44;5015913;28;20431;-86
2023/05/01 02:17:40;;;;;;;45.17;24.80;;;;;;;40.23;39.14;100830.97;5031641;28;20439;-86
2023/05/01 02:20:11;;;;;;;43.07;23.07;;;;;;;40.28;38.90;100833.53;5031970;28;20553;-86
2023/05/01 02:22:41;;;;;;;28.80;21.70;;;;;;;40.26;38.96;100836.53;5032238;28;20419;-86
2023/05/01 02:25:12;;;;;;;41.40;23.40;;;;;;;40.14;38.84;100817.38;5032809;28;20419;-86
2023/05/01 02:27:46;;;;;;;32.47;20.90;;;;;;;40.22;39.20;100826.66;5032214;28;20553;-86
2023/05/01 02:30:12;;;;;;;34.40;21.00;;;;;;;40.23;39.27;100823.59;5033095;28;20506;-86
2023/05/01 02:32:38;;;;;;;40.70;23.80;;;;;;;40.23;39.01;100828.25;5015760;28;20474;-85
2023/05/01 02:35:05;;;;;;;33.07;21.90;;;;;;;40.23;39.03;100820.09;5032044;28;20423;-86
2023/05/01 02:37:31;;;;;;;38.07;23.47;;;;;;;40.20;38.82;100823.44;5033029;28;20431;-86
2023/05/01 02:39:58;;;;;;;33.03;22.50;;;;;;;40.32;39.09;100826.28;5032611;28;20534;-86
2023/05/01 02:42:25;;;;;;;37.47;22.70;;;;;;;40.26;38.74;100830.31;5031765;28;20431;-86
2023/05/01 02:44:56;;;;;;;37.10;22.50;;;;;;;40.17;38.76;100816.75;5032044;28;20431;-85
2023/05/01 02:47:23;;;;;;;39.90;25.10;;;;;;;40.19;38.42;100817.22;5031635;28;20423;-87
2023/05/01 02:49:51;;;;;;;30.97;21.40;;;;;;;40.15;38.99;100824.44;5032953;28;20416;-85
2023/05/01 02:52:18;;;;;;;34.53;26.07;;;;;;;40.16;38.79;100817.88;5031632;28;20474;-84
2023/05/01 02:54:46;;;;;;;32.83;24.70;;;;;;;40.16;38.71;100820.59;5031097;28;20558;-85
2023/05/01 02:57:14;;;;;;;37.60;25.97;;;;;;;40.22;38.80;100832.09;5032198;28;20419;-85
2023/05/01 02:59:40;;;;;;;42.23;24.00;;;;;;;40.20;38.93;100826.97;5015706;28;20455;-86
2023/05/01 03:02:06;;;;;;;33.60;23.90;;;;;;;40.15;38.93;100827.16;5031500;28;20779;-86
2023/05/01 03:04:32;;;;;;;34.87;22.47;;;;;;;40.07;38.86;100817.06;5035622;28;20230;-86
2023/05/01 03:06:59;;;;;;;33.13;22.70;;;;;;;40.14;38.77;100836.41;5035120;28;20561;-86
2023/05/01 03:09:25;;;;;;;30.73;21.00;;;;;;;40.07;38.87;100811.63;5036071;28;20824;-86
2023/05/01 03:11:53;;;;;;;33.13;23.10;;;;;;;40.21;38.71;100839.44;5035389;28;20462;-86
2023/05/01 03:14:21;;;;;;;26.70;19.10;;;;;;;40.12;38.78;100827.78;5019507;28;20813;-86
2023/05/01 03:16:47;;;;;;;30.67;18.60;;;;;;;40.06;39.14;100814.69;5035485;28;20481;-86
2023/05/01 03:19:16;;;;;;;27.80;19.30;;;;;;;40.16;39.13;100820.59;5035512;28;20493;-86
2023/05/01 03:21:42;;;;;;;24.67;19.30;;;;;;;40.27;38.72;100838.16;5036713;28;20432;-85
2023/05/01 03:24:09;;;;;;;25.93;17.30;;;;;;;40.22;38.96;100830.16;5034843;28;20502;-86
2023/05/01 03:26:34;;;;;;;22.33;16.27;;;;;;;40.15;39.15;100808.13;5035489;28;20209;-86
2023/05/01 03:29:00;;;;;;;21.93;16.57;;;;;;;40.22;38.90;100818.50;5034879;28;20461;-86
2023/05/01 03:31:26;;;;;;;26.63;16.73;;;;;;;40.21;39.10;100811.47;5034875;28;20688;-85
2023/05/01 03:33:53;;;;;;;31.03;18.13;;;;;;;40.21;39.24;100825.06;5034790;28;20451;-85
2023/05/01 03:36:21;;;;;;;26.40;16.67;;;;;;;40.22;39.31;100816.59;5035006;28;20420;-84
2023/05/01 03:38:47;;;;;;;25.97;19.57;;;;;;;40.25;39.32;100826.00;5035428;28;21003;-85
2023/05/01 03:41:14;;;;;;;45.77;19.40;;;;;;;40.29;38.90;100830.47;5034755;28;20788;-85
2023/05/01 03:43:40;;;;;;;43.67;20.33;;;;;;;40.32;38.92;100834.44;5018551;28;20446;-85
2023/05/01 03:46:06;;;;;;;29.73;17.40;;;;;;;40.27;38.96;100826.50;5034394;28;20439;-85
2023/05/01 03:48:32;;;;;;;26.80;16.97;;;;;;;40.27;39.43;100831.94;5034745;28;20494;-86
2023/05/01 03:50:58;;;;;;;35.10;17.57;;;;;;;40.15;39.42;100829.88;5034307;28;20518;-86
2023/05/01 03:53:24;;;;;;;30.60;16.60;;;;;;;40.32;39.55;100839.09;5034373;28;20224;-86
2023/05/01 03:55:50;;;;;;;30.93;17.10;;;;;;;40.28;38.95;100822.66;5018042;28;20215;-86
2023/05/01 03:58:16;;;;;;;23.70;13.60;;;;;;;40.19;38.75;100822.66;5034460;28;20447;-86
2023/05/01 04:00:45;;;;;;;22.93;6.83;;;;;;;40.33;38.43;100841.50;5034415;28;20435;-86
2023/05/01 04:03:11;;;;;;;20.63;5.33;;;;;;;40.25;39.11;100826.00;5034296;28;20182;-86
2023/05/01 04:05:37;;;;;;;13.20;4.37;;;;;;;40.37;39.38;100834.28;5034706;28;20927;-85
2023/05/01 04:08:03;;;;;;;16.37;5.23;;;;;;;40.47;38.76;100847.56;5034158;28;20454;-86
2023/05/01 04:10:29;;;;;;;19.60;6.40;;;;;;;40.41;39.08;100831.72;5033933;28;20420;-84
2023/05/01 04:12:55;;;;;;;13.30;5.37;;;;;;;40.38;38.74;100848.66;5017542;28;20466;-85
2023/05/01 04:15:21;;;;;;;12.13;4.43;;;;;;;40.44;38.55;100839.22;5033805;28;20432;-86
2023/05/01 04:17:47;;;;;;;18.20;5.77;;;;;;;40.47;38.95;100838.59;5034120;28;20456;-86
2023/05/01 04:20:18;;;;;;;16.73;4.63;;;;;;;40.43;39.28;100830.25;5017854;28;20419;-86
2023/05/01 04:22:49;;;;;;;11.43;4.23;;;;;;;40.35;38.90;100827.59;5033673;28;20434;-86
2023/05/01 04:25:18;;;;;;;8.40;4.10;;;;;;;40.23;38.78;100814.66;5032546;28;20430;-85
2023/05/01 04:27:50;;;;;;;16.30;4.10;;;;;;;40.32;38.89;100815.41;5034542;28;20424;-86
2023/05/01 04:30:16;;;;;;;18.03;6.57;;;;;;;40.49;38.45;100841.78;5033504;28;20459;-86
2023/05/01 04:32:43;;;;;;;9.57;3.90;;;;;;;40.52;38.61;100849.31;5033725;28;20483;-86
2023/05/01 04:35:11;;;;;;;11.80;4.20;;;;;;;40.33;38.79;100836.06;5017807;28;20878;-86
2023/05/01 04:37:38;;;;;;;18.03;4.10;;;;;;;40.44;38.90;100840.00;5035138;28;20393;-86
2023/05/01 04:40:07;;;;;;;13.80;4.30;;;;;;;40.51;38.74;100853.94;5035161;28;20815;-86
2023/05/01 04:42:33;;;;;;;18.30;4.57;;;;;;;40.51;38.63;100855.84;5033822;28;20821;-86
2023/05/01 04:45:03;;;;;;;12.57;4.10;;;;;;;40.54;38.45;100857.94;5033510;28;20415;-86
2023/05/01 04:47:29;;;;;;;18.50;4.87;;;;;;;40.45;38.77;100862.56;5033761;28;20804;-85
2023/05/01 04:49:55;;;;;;;11.33;3.90;;;;;;;40.43;38.03;100864.81;5033705;28;20454;-84
2023/05/01 04:52:21;;;;;;;11.13;4.23;;;;;;;40.36;38.50;100865.31;5033252;28;20553;-85
2023/05/01 04:54:47;;;;;;;13.70;5.37;;;;;;;40.43;38.14;100870.25;5033285;28;21048;-85
2023/05/01 04:57:13;;;;;;;11.70;3.90;;;;;;;40.58;37.92;100877.94;5033746;28;20432;-86
2023/05/01 04:59:39;;;;;;;22.03;5.47;;;;;;;40.51;38.23;100864.00;5034228;28;20510;-85
2023/05/01 05:02:05;;;;;;;20.63;5.43;;;;;;;40.58;38.25;100877.09;5033503;28;20554;-84
2023/05/01 05:04:32;;;;;;;21.30;5.40;;;;;;;40.46;38.70;100864.97;5032899;28;20526;-85
2023/05/01 05:06:58;;;;;;;12.17;4.70;;;;;;;40.58;38.82;100871.66;5033635;28;21000;-85
2023/05/01 05:09:23;;;;;;;11.63;5.20;;;;;;;40.59;38.32;100874.09;5033325;28;20419;-86
2023/05/01 05:11:49;;;;;;;14.80;5.23;;;;;;;40.38;38.94;100882.09;5032838;28;20455;-85
2023/05/01 05:14:16;;;;;;;8.77;3.83;;;;;;;40.52;38.74;100881.94;5033348;28;20232;-86
2023/05/01 05:16:42;;;;;;;21.03;6.37;;;;;;;40.31;39.20;100854.59;5033282;28;20423;-86
2023/05/01 05:19:07;;;;;;;16.03;6.07;;;;;;;40.52;38.84;100884.66;5032902;28;20443;-84
2023/05/01 05:21:34;;;;;;;14.70;4.50;;;;;;;40.49;38.99;100890.72;5032760;28;20420;-85
2023/05/01 05:24:00;;;;;;;12.37;4.10;;;;;;;40.51;38.73;100892.00;5033348;28;20230;-86
2023/05/01 05:26:26;;;;;;;15.40;6.13;;;;;;;40.52;38.83;100885.47;5031876;28;20419;-85
2023/05/01 05:28:52;;;;;;;12.03;4.73;;;;;;;40.44;38.88;100883.50;5034304;28;20172;-84
2023/05/01 05:31:18;;;;;;;12.13;4.30;;;;;;;40.50;38.53;100905.91;5032742;28;20455;-85
2023/05/01 05:33:45;;;;;;;25.53;6.20;;;;;;;40.55;38.12;100905.75;5033268;28;20438;-86
2023/05/01 05:36:13;;;;;;;11.03;5.70;;;;;;;40.63;38.26;100909.56;5032708;28;20518;-86
2023/05/01 05:38:44;;;;;;;15.10;6.77;;;;;;;40.63;38.38;100915.00;5032060;28;20423;-85
2023/05/01 05:41:25;;;;;;;13.23;7.20;;;;;;;40.60;38.64;100912.94;5029374;28;20423;-86
2023/05/01 05:44:03;;;;;;;17.93;6.97;;;;;;;40.55;38.78;100903.84;5033329;28;20905;-85
2023/05/01 05:46:35;;;;;;;13.70;5.47;;;;;;;40.55;38.38;100914.72;5030623;28;20427;-85
2023/05/01 05:49:09;;;;;;;13.37;4.87;;;;;;;40.68;38.76;100914.84;5017034;28;20431;-86
2023/05/01 05:51:39;;;;;;;13.03;5.33;;;;;;;40.63;38.10;100920.44;5034409;28;20470;-85
2023/05/01 05:54:10;;;;;;;11.57;4.33;;;;;;;40.64;38.67;100928.31;5033504;28;20500;-85
2023/05/01 05:56:36;;;;;;;12.17;4.53;;;;;;;40.58;38.85;100923.31;5032391;28;20456;-85
2023/05/01 05:59:03;;;;;;;12.20;7.47;;;;;;;40.67;38.63;100933.06;5032362;28;20431;-87
2023/05/01 06:01:29;;;;;;;12.13;3.73;;;;;;;40.60;38.67;100929.25;5032324;28;20419;-86
2023/05/01 06:03:55;;;;;;;16.00;4.97;;;;;;;40.63;38.72;100926.69;5033319;28;20514;-87
2023/05/01 06:06:21;;;;;;;20.80;6.90;;;;;;;40.58;38.90;100918.72;5032236;28;20424;-85
2023/05/01 06:08:47;;;;;;;13.53;5.10;;;;;;;40.54;38.64;100929.44;5033880;28;20443;-85
2023/05/01 06:11:13;;;;;;;15.43;6.00;;;;;;;40.54;38.77;100923.19;5031992;28;20544;-85
2023/05/01 06:13:39;;;;;;;13.03;4.90;;;;;;;40.56;38.56;100937.25;5031459;28;20180;-86
2023/05/01 06:16:06;;;;;;;12.80;5.70;;;;;;;40.54;39.34;100940.31;5032319;28;20458;-86
2023/05/01 06:18:32;;;;;;;16.50;5.10;;;;;;;40.41;39.37;100946.69;5032000;28;20695;-85
2023/05/01 06:20:59;;;;;;;15.40;4.77;;;;;;;40.45;39.05;100946.84;5032113;28;20423;-85
2023/05/01 06:23:27;;;;;;;9.07;3.97;;;;;;;40.37;39.33;100939.50;5031619;28;20478;-84
2023/05/01 06:25:53;;;;;;;8.73;3.90;;;;;;;40.46;39.20;100957.41;5032167;28;20438;-85
2023/05/01 06:28:19;;;;;;;14.57;5.03;;;;;;;40.52;39.08;100963.50;5031548;28;20503;-86
2023/05/01 06:30:45;;;;;;;12.60;4.03;;;;;;;40.71;38.72;100963.16;5031575;28;20427;-86
2023/05/01 06:33:11;;;;;;;14.80;4.10;;;;;;;40.59;38.94;100961.09;5031590;28;20454;-86
2023/05/01 06:35:38;;;;;;;18.07;4.23;;;;;;;40.36;39.32;100974.03;5031936;28;20455;-86
2023/05/01 06:38:04;;;;;;;13.43;5.43;;;;;;;40.38;39.09;100974.50;5031761;28;20188;-85
2023/05/01 06:40:33;;;;;;;10.23;4.20;;;;;;;40.52;38.80;100980.63;5031782;28;20439;-85
2023/05/01 06:43:03;;;;;;;19.07;5.13;;;;;;;40.62;39.25;100984.13;5033101;28;20431;-85
2023/05/01 06:45:30;;;;;;;27.17;7.23;;;;;;;40.57;38.97;100985.06;5033229;28;20419;-86
2023/05/01 06:47:56;;;;;;;23.63;8.63;;;;;;;40.61;38.99;100993.41;5031647;28;20428;-84
2023/05/01 06:50:22;;;;;;;20.53;6.47;;;;;;;40.62;38.58;100989.56;5031130;28;20412;-84
2023/05/01 06:52:48;;;;;;;14.23;7.27;;;;;;;40.60;38.88;100992.59;5030920;28;20244;-87
2023/05/01 06:55:17;;;;;;;16.83;5.63;;;;;;;40.69;39.12;100995.28;5032811;28;20477;-87
2023/05/01 06:57:43;;;;;;;13.90;5.57;;;;;;;40.84;38.52;101002.16;5031711;28;20434;-85
2023/05/01 07:00:10;;;;;;;16.80;5.87;;;;;;;40.69;38.07;100984.41;5031459;28;20451;-86
2023/05/01 07:02:37;;;;;;;19.93;5.97;;;;;;;40.61;38.52;101009.72;5030791;28;20176;-86
2023/05/01 07:05:04;;;;;;;16.20;5.00;;;;;;;40.52;38.36;101001.56;5031871;28;20419;-83
2023/05/01 07:07:32;;;;;;;11.50;3.63;;;;;;;40.55;38.74;101015.31;5015725;28;20420;-83
2023/05/01 07:09:59;;;;;;;14.27;4.20;;;;;;;40.76;38.41;101026.34;5032139;28;20931;-86
2023/05/01 07:12:28;;;;;;;12.43;6.30;;;;;;;40.67;38.24;101022.03;5032057;28;21008;-85
2023/05/01 07:14:55;;;;;;;19.77;5.93;;;;;;;40.80;38.17;101034.66;5030560;28;20436;-85
2023/05/01 07:17:22;;;;;;;17.03;4.67;;;;;;;40.60;38.39;101010.84;5031189;28;20415;-86
2023/05/01 07:19:49;;;;;;;14.93;6.23;;;;;;;40.85;38.34;101029.03;5030867;28;20885;-86
2023/05/01 07:22:15;;;;;;;12.70;4.50;;;;;;;40.84;38.66;101034.81;5030638;28;20400;-87
2023/05/01 07:24:41;;;;;;;12.10;5.23;;;;;;;40.81;38.40;101053.34;5030598;28;20447;-85
2023/05/01 07:27:07;;;;;;;10.50;4.70;;;;;;;40.84;37.99;101049.22;5030745;28;20412;-84
2023/05/01 07:29:35;;;;;;;15.43;5.97;;;;;;;40.90;38.02;101056.13;5030423;28;20997;-85
2023/05/01 07:32:01;;;;;;;15.40;4.40;;;;;;;41.02;38.02;101067.13;5030580;28;20458;-86
2023/05/01 07:34:27;;;;;;;19.33;7.00;;;;;;;40.97;37.78;101074.66;5030327;28;20416;-87
2023/05/01 07:36:54;;;;;;;19.20;8.40;;;;;;;40.88;38.16;101080.06;5030857;28;20173;-85
2023/05/01 07:39:20;;;;;;;11.27;4.37;;;;;;;40.87;38.22;101058.63;5030417;28;20224;-86
2023/05/01 07:41:46;;;;;;;14.40;5.10;;;;;;;40.99;37.86;101078.66;5030848;28;20420;-86
2023/05/01 07:44:12;;;;;;;11.33;3.40;;;;;;;40.96;37.73;101079.31;5032139;28;20400;-86
2023/05/01 07:46:38;;;;;;;14.97;4.10;;;;;;;41.02;37.79;101080.75;5030296;28;20439;-85
2023/05/01 07:49:05;;;;;;;10.60;3.73;;;;;;;40.80;37.68;101059.91;5033370;28;20501;-85
2023/05/01 07:51:33;;;;;;;14.63;5.07;;;;;;;40.99;37.69;101091.47;5034385;28;20491;-86
2023/05/01 07:54:03;;;;;;;15.67;4.77;;;;;;;41.02;37.81;101090.81;5018306;28;20874;-85
2023/05/01 07:56:32;;;;;;;16.50;4.67;;;;;;;41.10;37.58;101094.66;5035001;28;20970;-86
2023/05/01 07:59:03;;;;;;;22.83;4.83;;;;;;;41.19;37.63;101107.13;5034138;28;20939;-84
2023/05/01 08:01:29;;;;;;;10.70;5.53;;;;;;;41.13;37.20;101105.69;5019233;28;20435;-85
2023/05/01 08:03:55;;;;;;;11.23;5.17;;;;;;;41.18;37.28;101110.94;5034672;28;20465;-85
2023/05/01 08:06:21;;;;;;;11.90;5.33;;;;;;;41.24;37.33;101117.81;5033449;28;20416;-86
2023/05/01 08:08:47;;;;;;;10.90;5.10;;;;;;;41.11;37.25;101094.31;5032188;28;20419;-88
2023/05/01 08:11:13;;;;;;;13.53;4.60;;;;;;;41.27;37.09;101109.03;5034052;28;20623;-86
2023/05/01 08:13:42;;;;;;;12.77;3.93;;;;;;;41.23;37.02;101115.44;5035574;28;20486;-87
2023/05/01 08:16:11;;;;;;;17.30;4.90;;;;;;;41.12;37.17;101112.25;5034401;28;20419;-86
2023/05/01 08:18:37;;;;;;;7.60;3.00;;;;;;;41.28;36.86;101118.00;5034208;28;20416;-90
2023/05/01 08:21:03;;;;;;;15.13;6.77;;;;;;;41.26;37.35;101129.22;5033831;28;20411;-84
2023/05/01 08:23:29;;;;;;;17.00;5.27;;;;;;;41.27;37.42;101114.47;5033670;28;20510;-84
2023/05/01 08:25:55;;;;;;;14.50;6.63;;;;;;;41.37;37.18;101134.31;5033953;28;20510;-83
2023/05/01 08:28:22;;;;;;;13.63;5.73;;;;;;;41.36;37.03;101143.63;5033491;28;20470;-82
2023/05/01 08:30:48;;;;;;;12.60;5.83;;;;;;;41.33;37.12;101131.47;5034700;28;20435;-83
2023/05/01 08:33:15;;;;;;;14.60;5.23;;;;;;;41.41;36.75;101141.53;5033691;28;20506;-84
2023/05/01 08:35:41;;;;;;;14.90;4.77;;;;;;;41.28;37.06;101142.50;5033397;28;20416;-85
2023/05/01 08:38:07;;;;;;;11.57;4.40;;;;;;;41.29;36.98;101150.31;5032376;28;20474;-83
2023/05/01 08:40:37;;;;;;;15.90;4.17;;;;;;;41.45;37.42;101164.28;5033229;28;20851;-83
2023/05/01 08:43:04;;;;;;;12.40;5.07;;;;;;;41.55;37.10;101154.94;5033200;28;20428;-84
2023/05/01 08:45:35;;;;;;;16.90;7.37;;;;;;;41.54;37.30;101161.50;5033928;28;20800;-83
2023/05/01 08:48:05;;;;;;;14.30;4.30;;;;;;;41.52;37.19;101161.84;5046490;28;20420;-87
2023/05/01 08:50:37;;;;;;;12.47;4.63;;;;;;;41.65;36.94;101173.66;5019023;28;20437;-86
2023/05/01 08:53:05;;;;;;;15.40;5.80;;;;;;;41.48;37.23;101169.06;5030542;28;21034;-85
2023/05/01 08:55:34;;;;;;;14.23;4.90;;;;;;;41.68;36.71;101164.03;5032354;28;20467;-86
2023/05/01 08:58:02;;;;;;;7.47;4.27;;;;;;;41.64;36.87;101163.09;5032064;28;20439;-84
2023/05/01 09:00:33;;;;;;;10.07;4.20;;;;;;;41.56;36.54;101162.81;5031583;28;20435;-87
2023/05/01 09:03:01;;;;;;;9.80;4.37;;;;;;;41.64;37.01;101161.19;5033288;28;20552;-87
2023/05/01 09:05:30;;;;;;;14.60;5.67;;;;;;;41.76;37.16;101165.97;5031705;28;20507;-85
2023/05/01 09:07:59;;;;;;;13.43;6.37;;;;;;;41.68;37.25;101137.63;5013279;28;20416;-84
2023/05/01 09:10:27;;;;;;;10.70;4.70;;;;;;;41.65;37.24;101162.78;5012273;28;21003;-88
2023/05/01 09:12:57;;;;;;;12.17;5.20;;;;;;;41.71;36.44;101169.66;5011951;28;20464;-86
2023/05/01 09:15:25;;;;;;;18.67;6.00;;;;;;;41.62;36.54;101152.53;5027736;28;20419;-84
2023/05/01 09:17:54;;;;;;;14.53;5.37;;;;;;;41.63;36.78;101154.13;5032442;28;20443;-83
2023/05/01 09:20:22;;;;;;;15.73;4.50;;;;;;;41.56;37.06;101142.94;5034508;28;20433;-84
2023/05/01 09:22:49;;;;;;;15.17;5.53;;;;;;;41.85;37.23;101162.09;5033309;28;20396;-85
2023/05/01 09:25:20;;;;;;;11.53;5.10;;;;;;;41.77;36.90;101162.94;5032840;28;20469;-84
2023/05/01 09:27:48;;;;;;;13.23;4.20;;;;;;;41.68;37.15;101159.41;5034142;28;20419;-84
2023/05/01 09:30:37;;;;;;;12.10;5.83;;;;;;;41.66;36.94;101156.19;5017354;28;20431;-84
2023/05/01 09:33:12;;;;;;;10.17;5.80;;;;;;;41.85;36.85;101151.19;5031729;28;21049;-85
2023/05/01 09:35:54;;;;;;;15.30;5.27;;;;;;;41.66;37.41;101158.91;5032671;28;20425;-83
2023/05/01 09:38:26;;;;;;;13.93;4.80;;;;;;;41.73;36.89;101152.97;5033058;28;20427;-84
2023/05/01 09:41:12;;;;;;;11.13;3.67;;;;;;;41.75;36.79;101135.22;5033961;28;20406;-85
2023/05/01 09:43:39;;;;;;;18.57;4.50;;;;;;;41.79;36.58;101154.41;5030034;28;20509;-85
2023/05/01 09:46:12;;;;;;;16.63;4.77;;;;;;;41.84;36.82;101149.59;5016406;28;20454;-83
2023/05/01 09:48:39;;;;;;;12.63;5.23;;;;;;;41.86;36.49;101144.59;5032603;28;20404;-82
2023/05/01 09:51:31;;;;;;;10.33;4.63;;;;;;;41.89;36.63;101145.09;5033230;28;20423;-87
2023/05/01 09:54:05;;;;;;;12.10;3.43;;;;;;;41.73;36.56;101131.19;5028955;28;21000;-84
2023/05/01 09:56:45;;;;;;;7.40;2.43;;;;;;;41.75;36.79;101145.31;5032144;28;20471;-83
2023/05/01 09:59:16;;;;;;;12.73;3.03;;;;;;;41.54;36.76;101131.56;5032224;28;20433;-81
2023/05/01 10:01:45;;;;;;;11.17;4.13;;;;;;;41.84;36.23;101140.63;5030243;28;21018;-84
2023/05/01 10:04:12;;;;;;;13.43;4.77;;;;;;;41.81;36.46;101123.00;5015507;28;20435;-82
2023/05/01 10:06:39;;;;;;;12.50;4.00;;;;;;;41.92;36.42;101134.31;5032480;28;20475;-85
2023/05/01 10:09:15;;;;;;;13.77;4.87;;;;;;;41.86;36.43;101141.09;5032618;28;20446;-83
2023/05/01 10:11:57;;;;;;;11.93;5.70;;;;;;;41.84;36.01;101127.78;5015758;28;20573;-82
2023/05/01 10:14:28;;;;;;;9.70;3.93;;;;;;;41.88;35.88;101124.44;5031628;28;20447;-83
2023/05/01 10:16:56;;;;;;;20.30;6.17;;;;;;;41.89;35.75;101129.53;5015983;28;20439;-87
2023/05/01 10:19:22;;;;;;;7.77;3.53;;;;;;;42.06;35.77;101115.84;5031897;28;20434;-84
2023/05/01 10:21:48;;;;;;;10.03;3.50;;;;;;;41.89;36.64;101121.38;5030956;28;20459;-84
2023/05/01 10:24:17;;;;;;;13.60;3.90;;;;;;;41.97;36.39;101095.19;5030782;28;20532;-81
2023/05/01 10:26:43;;;;;;;11.50;3.93;;;;;;;42.00;36.34;101102.72;5029551;28;20534;-85
2023/05/01 10:29:11;;;;;;;15.70;4.50;;;;;;;41.83;36.05;101104.41;5029562;28;20468;-84
2023/05/01 10:31:37;;;;;;;14.20;4.03;;;;;;;41.94;35.85;101106.78;5031175;28;20462;-88
2023/05/01 10:34:05;;;;;;;14.30;3.73;;;;;;;41.84;36.13;101086.13;5029555;28;20451;-83
2023/05/01 10:36:42;;;;;;;17.53;5.40;;;;;;;41.97;35.95;101082.38;5029880;28;20419;-86
2023/05/01 10:39:29;;;;;;;14.50;3.40;;;;;;;42.12;35.72;101095.44;5030033;28;20803;-83
2023/05/01 10:41:58;;;;;;;10.40;3.27;;;;;;;42.05;36.20;101088.88;5028860;28;20785;-85
2023/05/01 10:44:27;;;;;;;11.83;4.60;;;;;;;42.05;36.17;101088.88;5029319;28;20447;-87
2023/05/01 10:46:54;;;;;;;20.63;5.60;;;;;;;42.02;36.14;101089.56;5029492;28;20514;-86
2023/05/01 10:49:20;;;;;;;14.23;5.13;;;;;;;42.05;36.49;101084.25;5029622;28;20512;-87
2023/05/01 10:52:02;;;;;;;11.47;3.80;;;;;;;41.96;36.14;101082.69;5029072;28;20455;-89
2023/05/01 10:54:30;;;;;;;11.03;3.60;;;;;;;41.92;36.43;101079.03;5030221;28;20940;-88
2023/05/01 10:57:00;;;;;;;15.20;3.90;;;;;;;41.93;35.84;101065.09;5032949;28;20441;-88
2023/05/01 10:59:58;;;;;;;11.73;2.80;;;;;;;41.76;35.96;101065.97;5031251;28;20777;-87
2023/05/01 11:02:25;;;;;;;10.10;4.07;;;;;;;42.03;35.66;101056.53;5024276;28;20407;-87
2023/05/01 11:04:54;;;;;;;10.60;3.87;;;;;;;42.12;35.89;101060.00;5031081;28;20435;-86
2023/05/01 11:07:21;;;;;;;17.03;3.00;;;;;;;42.18;35.91;101060.66;5030953;28;20423;-87
2023/05/01 11:09:54;;;;;;;8.73;2.60;;;;;;;42.25;36.01;101043.75;5030987;28;20426;-88
2023/05/01 11:12:47;;;;;;;8.13;2.30;;;;;;;41.95;36.58;101053.88;5030845;28;20505;-87
2023/05/01 11:15:29;;;;;;;9.93;3.17;;;;;;;42.21;35.87;101037.38;5011209;28;20447;-87
2023/05/01 11:17:56;;;;;;;16.13;5.27;;;;;;;42.01;35.87;101041.66;5011340;28;20499;-87
2023/05/01 11:20:25;;;;;;;12.40;4.10;;;;;;;42.16;35.82;101032.06;5027583;28;20471;-85
2023/05/01 11:22:52;;;;;;;10.20;2.90;;;;;;;42.09;35.85;101029.88;5011755;28;20449;-87
2023/05/01 11:25:19;;;;;;;11.67;3.43;;;;;;;42.31;36.00;101032.31;5034447;28;20415;-87
2023/05/01 11:27:53;;;;;;;19.87;4.27;;;;;;;42.16;35.77;101027.44;5034782;28;20931;-87